Time;durP1;ratioP1;P1;durP2;ratioP2;P2;SDS_P1;SDS_P2;PMS_P1;PMS_P2;Temp;Humidity;BMP_temperature;BMP_pressure;BME280_temperature;BME280_humidity;BME280_pressure;Samples;Min_cycle;Max_cycle;Signal;HPM_P1;HPM_P2
2022/07/16 00:02:35;;;;;;;7.88;4.75;;;21.50;99.90;;;22.06;63.16;102036.66;5056372;28;20053;-59
2022/07/16 00:05:04;;;;;;;6.80;5.63;;;21.50;99.90;;;22.09;63.25;102031.16;5056027;28;20069;-59
2022/07/16 00:07:33;;;;;;;6.20;4.95;;;21.60;99.90;;;22.01;63.48;102022.47;5055663;28;20079;-59
2022/07/16 00:10:01;;;;;;;5.35;4.85;;;21.60;99.90;;;22.06;63.68;102034.84;5055630;28;20052;-60
2022/07/16 00:12:29;;;;;;;6.35;4.85;;;21.60;99.90;;;22.07;63.86;102031.22;5055562;28;20552;-59
2022/07/16 00:14:58;;;;;;;6.03;5.03;;;21.50;99.90;;;22.11;63.96;102031.97;5055834;28;20060;-59
2022/07/16 00:17:27;;;;;;;7.47;5.22;;;21.60;99.90;;;22.09;64.05;102029.34;5055431;28;20131;-59
2022/07/16 00:19:55;;;;;;;8.38;5.20;;;21.60;99.90;;;22.12;63.83;102031.06;5055157;28;20442;-59
2022/07/16 00:22:24;;;;;;;6.93;5.25;;;21.60;99.90;;;22.11;63.71;102027.47;5055442;28;20045;-59
2022/07/16 00:24:52;;;;;;;8.10;5.95;;;21.60;99.90;;;22.10;63.54;102031.13;5055816;28;20131;-59
2022/07/16 00:27:20;;;;;;;5.68;4.85;;;21.60;99.90;;;22.04;63.39;102025.94;5055264;28;20033;-59
2022/07/16 00:29:49;;;;;;;9.10;5.55;;;21.60;99.90;;;22.04;63.39;102033.13;5055399;28;20064;-59
2022/07/16 00:32:17;;;;;;;5.78;5.15;;;21.50;99.90;;;22.03;63.13;102029.53;5055294;28;20037;-60
2022/07/16 00:34:46;;;;;;;6.60;5.38;;;21.50;99.90;;;22.00;62.85;102026.97;5055162;28;20090;-59
2022/07/16 00:37:15;;;;;;;7.65;5.05;;;21.50;99.90;;;21.98;62.69;102019.84;5055145;28;20512;-59
2022/07/16 00:39:44;;;;;;;7.25;4.70;;;21.50;99.90;;;22.01;62.38;102026.00;5055369;28;20041;-59
2022/07/16 00:42:12;;;;;;;8.00;4.95;;;21.50;99.90;;;22.00;62.90;102024.28;5055260;28;20051;-59
2022/07/16 00:44:40;;;;;;;8.82;4.72;;;21.50;99.90;;;21.93;63.89;102017.28;5054865;28;20099;-59
2022/07/16 00:47:08;;;;;;;6.38;4.38;;;21.40;99.90;;;21.88;63.97;102021.06;5054955;28;20065;-59
2022/07/16 00:49:37;;;;;;;7.18;4.70;;;21.30;99.90;;;21.62;66.16;102024.59;5055430;28;20049;-59
2022/07/16 00:52:05;;;;;;;8.35;4.30;;;21.10;99.90;;;21.65;65.55;102026.28;5054778;28;20045;-59
2022/07/16 00:54:35;;;;;;;7.65;4.45;;;21.00;99.90;;;21.62;65.53;102021.91;5054982;28;20083;-60
2022/07/16 00:57:04;;;;;;;7.63;4.38;;;21.10;99.90;;;21.63;65.53;102022.75;5055060;28;20061;-59
2022/07/16 00:59:32;;;;;;;7.85;4.57;;;21.00;99.90;;;21.66;65.60;102022.69;5054681;28;20136;-59
2022/07/16 01:02:01;;;;;;;6.82;4.60;;;21.00;99.90;;;21.55;66.21;102018.50;5054572;28;20072;-60
2022/07/16 01:04:29;;;;;;;7.35;4.72;;;21.00;99.90;;;21.56;66.75;102025.63;5054820;28;20129;-60
2022/07/16 01:06:58;;;;;;;6.80;4.88;;;21.00;99.90;;;21.43;67.60;102024.28;5054460;28;20044;-59
2022/07/16 01:09:27;;;;;;;8.88;4.82;;;20.90;99.90;;;21.35;68.32;102010.16;5054418;28;20115;-59
2022/07/16 01:11:57;;;;;;;10.43;5.45;;;20.90;99.90;;;21.46;68.54;102021.50;5054864;28;20132;-59
2022/07/16 01:14:26;;;;;;;7.47;4.57;;;20.90;99.90;;;21.48;68.60;102026.81;5054696;28;20095;-59
2022/07/16 01:16:55;;;;;;;11.43;4.97;;;20.90;99.90;;;21.47;68.89;102025.06;5054295;28;20502;-61
2022/07/16 01:19:23;;;;;;;12.15;5.55;;;20.90;99.90;;;21.44;69.43;102027.84;5054294;28;20049;-59
2022/07/16 01:21:51;;;;;;;9.13;5.15;;;20.90;99.90;;;21.40;69.37;102023.47;5054289;28;20040;-60
2022/07/16 01:24:21;;;;;;;8.95;5.13;;;20.90;99.90;;;21.42;69.83;102014.44;5054115;28;20049;-59
2022/07/16 01:26:49;;;;;;;12.87;5.63;;;20.90;99.90;;;21.39;69.75;102013.63;5054190;28;20098;-59
2022/07/16 01:29:18;;;;;;;7.72;5.43;;;20.90;99.90;;;21.46;69.72;102021.50;5054685;28;20123;-60
2022/07/16 01:31:46;;;;;;;11.60;5.18;;;20.90;99.90;;;21.38;69.65;102020.84;5053227;28;20388;-60
2022/07/16 01:34:26;;;;;;;11.75;5.43;;;20.90;99.90;;;21.26;70.21;102018.53;5054201;28;20049;-59
2022/07/16 01:36:57;;;;;;;9.38;4.97;;;20.80;99.90;;;21.34;70.14;102020.97;5054077;28;20075;-59
2022/07/16 01:39:29;;;;;;;10.05;5.15;;;20.80;99.90;;;21.28;70.69;102021.16;5053004;28;20068;-59
2022/07/16 01:41:59;;;;;;;9.52;5.47;;;20.70;99.90;;;21.32;70.80;102023.72;5053912;28;20071;-59
2022/07/16 01:44:31;;;;;;;10.52;5.25;;;20.80;99.90;;;21.14;71.02;102002.72;5054185;28;20119;-60
2022/07/16 01:47:00;;;;;;;8.80;5.07;;;20.70;99.90;;;21.15;71.61;102023.34;5053842;28;20478;-59
2022/07/16 01:49:32;;;;;;;10.30;5.00;;;20.60;99.90;;;21.05;71.74;102018.25;5054016;28;20219;-59
2022/07/16 01:52:09;;;;;;;8.50;4.65;;;20.60;99.90;;;21.12;71.62;102019.84;5053725;28;20065;-59
2022/07/16 01:54:43;;;;;;;9.57;5.03;;;20.50;99.90;;;21.08;71.67;102018.19;5053935;28;20102;-59
2022/07/16 01:57:13;;;;;;;9.75;5.22;;;20.60;99.90;;;21.01;72.16;102030.03;5053434;28;20076;-59
2022/07/16 01:59:42;;;;;;;6.70;5.00;;;20.60;99.90;;;21.04;72.02;102024.59;5086159;28;20462;-59
2022/07/16 02:02:12;;;;;;;11.65;5.00;;;20.50;99.90;;;20.93;71.51;102032.03;5053835;28;20064;-59
2022/07/16 02:04:41;;;;;;;7.65;4.40;;;20.60;99.90;;;20.96;71.60;102029.28;5052447;28;20471;-59
2022/07/16 02:07:10;;;;;;;9.52;5.47;;;20.50;99.90;;;21.03;70.66;102031.78;5053956;28;20127;-59
2022/07/16 02:09:39;;;;;;;7.88;4.35;;;20.60;99.90;;;20.85;71.40;102026.88;5053314;28;20051;-59
2022/07/16 02:12:08;;;;;;;6.82;4.40;;;20.40;99.90;;;21.03;70.45;102033.56;5053897;28;20045;-59
2022/07/16 02:14:36;;;;;;;5.57;3.92;;;20.60;99.90;;;20.79;70.91;102029.72;5053161;28;20041;-59
2022/07/16 02:17:04;;;;;;;7.80;4.40;;;20.40;99.90;;;21.05;70.43;102038.00;5053296;28;20072;-59
2022/07/16 02:19:33;;;;;;;5.07;3.90;;;20.60;99.90;;;21.05;69.94;102043.38;5053508;28;20090;-60
2022/07/16 02:22:02;;;;;;;8.02;4.80;;;20.70;99.90;;;21.13;70.08;102041.34;5053180;28;20170;-59
2022/07/16 02:24:30;;;;;;;7.05;4.63;;;20.70;99.90;;;20.84;71.37;102048.44;5053070;28;20059;-59
2022/07/16 02:27:00;;;;;;;8.23;5.05;;;20.50;99.90;;;20.96;71.34;102049.00;5053662;28;20102;-59
2022/07/16 02:29:28;;;;;;;8.45;5.05;;;20.60;99.90;;;21.02;71.32;102056.91;5053089;28;20490;-59
2022/07/16 02:31:57;;;;;;;11.75;5.00;;;20.60;99.90;;;21.06;71.24;102055.03;5053074;28;20052;-59
2022/07/16 02:34:25;;;;;;;7.30;4.78;;;20.60;99.90;;;20.85;72.03;102052.91;5052952;28;20501;-59
2022/07/16 02:36:53;;;;;;;8.38;4.75;;;20.50;99.90;;;20.86;71.55;102055.56;5053256;28;20069;-61
2022/07/16 02:39:22;;;;;;;7.53;4.28;;;20.50;99.90;;;20.87;71.66;102057.31;5053181;28;20488;-59
2022/07/16 02:41:50;;;;;;;8.60;4.50;;;20.50;99.90;;;20.62;72.17;102062.47;5053271;28;20065;-59
2022/07/16 02:44:20;;;;;;;7.68;4.13;;;20.40;99.90;;;20.56;72.30;102068.00;5053212;28;20131;-59
2022/07/16 02:46:48;;;;;;;7.47;3.80;;;20.30;99.90;;;20.43;72.76;102069.25;5052918;28;20388;-59
2022/07/16 02:49:16;;;;;;;7.35;4.05;;;20.10;99.90;;;20.40;72.69;102066.63;5052837;28;20676;-59
2022/07/16 02:51:45;;;;;;;6.80;4.55;;;20.00;99.90;;;20.46;73.03;102076.38;5052784;28;20577;-60
2022/07/16 02:54:13;;;;;;;5.82;3.70;;;20.10;99.90;;;20.43;73.33;102074.63;5052596;28;20052;-59
2022/07/16 02:56:41;;;;;;;5.45;3.83;;;20.00;99.90;;;20.29;73.86;102073.22;5068503;28;20088;-59
2022/07/16 02:59:10;;;;;;;9.43;3.97;;;19.90;99.90;;;20.19;74.26;102077.94;5052954;28;20038;-59
2022/07/16 03:01:39;;;;;;;5.60;3.80;;;19.80;99.90;;;20.22;73.81;102066.22;5052957;28;20037;-59
2022/07/16 03:04:08;;;;;;;3.70;3.13;;;19.90;99.90;;;20.35;73.37;102075.75;5052725;28;20057;-59
2022/07/16 03:06:37;;;;;;;9.25;3.90;;;20.00;99.90;;;20.48;72.61;102075.38;5052942;28;20132;-59
2022/07/16 03:09:05;;;;;;;6.13;3.67;;;20.10;99.90;;;20.53;72.25;102076.19;5052990;28;20045;-59
2022/07/16 03:11:33;;;;;;;3.90;3.45;;;20.10;99.90;;;20.60;71.81;102068.81;5052698;28;20045;-59
2022/07/16 03:14:01;;;;;;;8.88;3.58;;;20.30;99.90;;;20.71;71.27;102087.38;5051520;28;20049;-59
2022/07/16 03:16:30;;;;;;;7.35;3.53;;;20.30;99.90;;;20.41;71.70;102087.25;5052541;28;20044;-60
2022/07/16 03:19:00;;;;;;;4.90;3.35;;;20.20;99.90;;;20.35;72.85;102084.69;5052856;28;20128;-60
2022/07/16 03:21:28;;;;;;;4.23;3.03;;;20.00;99.90;;;20.54;72.82;102095.84;5052715;28;20048;-59
2022/07/16 03:23:56;;;;;;;5.32;3.90;;;20.20;99.90;;;20.32;73.29;102089.28;5052479;28;20124;-60
2022/07/16 03:26:25;;;;;;;4.75;3.75;;;19.90;99.90;;;20.46;72.54;102092.50;5052496;28;20464;-59
2022/07/16 03:28:53;;;;;;;5.40;3.33;;;20.10;99.90;;;20.30;73.00;102081.25;5053055;28;20063;-60
2022/07/16 03:31:21;;;;;;;4.57;3.30;;;19.90;99.90;;;20.41;73.25;102098.00;5052479;28;20077;-59
2022/07/16 03:33:50;;;;;;;6.15;3.05;;;19.90;99.90;;;20.41;73.44;102098.00;5052297;28;20041;-59
2022/07/16 03:36:19;;;;;;;5.57;3.40;;;19.90;99.90;;;20.19;73.79;102099.44;5052446;28;20033;-60
2022/07/16 03:39:02;;;;;;;6.22;3.75;;;19.80;99.90;;;20.21;74.13;102108.34;5052435;28;20045;-59
2022/07/16 03:41:31;;;;;;;4.45;3.65;;;19.70;99.90;;;20.26;74.15;102090.31;5052980;28;20072;-59
2022/07/16 03:44:00;;;;;;;8.27;3.55;;;19.80;99.90;;;20.21;74.51;102105.66;5052680;28;20122;-59
2022/07/16 03:46:29;;;;;;;5.60;3.65;;;19.70;99.90;;;20.09;74.97;102123.84;5051319;28;20132;-61
2022/07/16 03:48:59;;;;;;;5.22;3.90;;;19.60;99.90;;;20.05;75.27;102112.31;5052831;28;20095;-59
2022/07/16 03:51:29;;;;;;;6.70;3.10;;;19.60;99.90;;;20.33;75.32;102108.03;5052293;28;20048;-59
2022/07/16 03:53:58;;;;;;;7.18;3.63;;;19.80;99.90;;;20.35;74.83;102110.69;5052285;28;20065;-59
2022/07/16 03:56:26;;;;;;;5.88;3.65;;;19.80;99.90;;;20.07;76.17;102113.16;5054794;28;20076;-59
2022/07/16 03:58:55;;;;;;;8.15;3.65;;;19.60;99.90;;;19.98;76.87;102113.34;5055891;28;20422;-60
2022/07/16 04:01:24;;;;;;;5.47;3.42;;;19.40;99.90;;;19.86;76.91;102121.66;5056072;28;20037;-59
2022/07/16 04:03:53;;;;;;;7.13;4.03;;;19.40;99.90;;;19.89;77.83;102115.34;5055717;28;20036;-59
2022/07/16 04:06:22;;;;;;;7.22;4.07;;;19.40;99.90;;;20.15;77.20;102129.94;5055730;28;20041;-60
2022/07/16 04:08:52;;;;;;;14.57;4.65;;;19.60;99.90;;;20.24;76.67;102129.78;5055606;28;20494;-60
2022/07/16 04:11:20;;;;;;;10.40;3.97;;;19.70;99.90;;;20.30;75.97;102112.63;5055894;28;20132;-60
2022/07/16 04:13:49;;;;;;;7.43;3.65;;;19.90;99.90;;;20.53;75.40;102129.06;5054493;28;20049;-59
2022/07/16 04:16:17;;;;;;;5.10;3.88;;;20.10;99.90;;;20.63;75.16;102126.06;5056087;28;20041;-59
2022/07/16 04:18:47;;;;;;;6.65;4.05;;;20.20;99.90;;;20.80;74.22;102135.53;5055455;28;20045;-60
2022/07/16 04:21:15;;;;;;;9.57;3.50;;;20.30;99.90;;;20.82;73.76;102145.31;5055460;28;20033;-59
2022/07/16 04:23:44;;;;;;;8.25;3.58;;;20.40;99.90;;;20.88;73.41;102152.34;5055411;28;20457;-59
2022/07/16 04:26:14;;;;;;;7.60;3.53;;;20.50;99.90;;;20.92;72.89;102144.16;5055848;28;20051;-59
2022/07/16 04:28:42;;;;;;;5.72;3.25;;;20.50;99.90;;;20.92;72.44;102151.34;5055530;28;20045;-60
2022/07/16 04:31:10;;;;;;;6.93;3.63;;;20.50;99.90;;;21.04;72.14;102145.69;5055123;28;20041;-59
2022/07/16 04:33:39;;;;;;;10.43;3.15;;;20.60;99.90;;;21.07;71.68;102151.84;5055090;28;20451;-60
2022/07/16 04:36:08;;;;;;;4.47;3.03;;;20.70;99.90;;;21.06;71.05;102155.47;5054153;28;20072;-60
2022/07/16 04:38:36;;;;;;;6.28;3.30;;;20.60;99.90;;;21.09;70.71;102163.47;5055084;28;20075;-59
2022/07/16 04:41:05;;;;;;;5.20;3.58;;;20.60;99.90;;;21.11;69.97;102158.03;5054992;28;20045;-59
2022/07/16 04:43:35;;;;;;;7.65;3.80;;;20.70;99.90;;;21.15;69.26;102165.09;5055257;28;20049;-60
2022/07/16 04:46:04;;;;;;;6.95;3.38;;;20.70;99.90;;;21.12;69.63;102162.47;5055529;28;20132;-60
2022/07/16 04:48:32;;;;;;;7.50;3.60;;;20.70;99.90;;;21.27;69.18;102164.78;5054933;28;20041;-59
2022/07/16 04:51:00;;;;;;;6.07;3.10;;;20.90;99.90;;;21.24;69.31;102159.47;5055369;28;20045;-59
2022/07/16 04:53:29;;;;;;;6.38;3.22;;;20.90;99.90;;;21.28;68.87;102166.53;5054603;28;20050;-60
2022/07/16 04:55:57;;;;;;;6.80;3.15;;;20.90;99.90;;;21.32;68.56;102165.50;5054809;28;20049;-59
2022/07/16 04:58:26;;;;;;;4.00;3.10;;;20.90;99.90;;;21.39;68.53;102159.91;5055066;28;20043;-59
2022/07/16 05:00:55;;;;;;;6.80;3.63;;;21.00;99.90;;;21.30;67.99;102143.13;5055261;28;20048;-60
2022/07/16 05:03:24;;;;;;;6.23;3.63;;;21.10;99.90;;;21.49;67.38;102171.31;5054573;28;20049;-61
2022/07/16 05:05:52;;;;;;;7.22;3.92;;;21.10;99.90;;;21.54;66.60;102172.06;5054434;28;20037;-60
2022/07/16 05:08:21;;;;;;;5.03;3.20;;;21.10;99.90;;;21.52;65.88;102166.69;5054520;28;20063;-60
2022/07/16 05:10:49;;;;;;;5.93;3.00;;;21.20;99.90;;;21.52;65.08;102168.53;5054509;28;20064;-59
2022/07/16 05:13:18;;;;;;;6.47;3.60;;;21.10;99.90;;;21.54;64.88;102174.75;5070081;28;20049;-60
2022/07/16 05:15:46;;;;;;;8.68;3.97;;;21.20;99.90;;;21.50;64.52;102178.47;5054564;28;20055;-60
2022/07/16 05:18:16;;;;;;;5.07;3.78;;;21.10;99.90;;;21.59;64.87;102175.50;5054322;28;20060;-59
2022/07/16 05:20:45;;;;;;;7.65;3.38;;;21.20;99.90;;;21.50;64.78;102176.63;5054307;28;20556;-60
2022/07/16 05:23:13;;;;;;;6.15;3.47;;;21.20;99.90;;;21.58;64.53;102184.53;5053236;28;20487;-59
2022/07/16 05:25:42;;;;;;;4.65;3.38;;;21.20;99.90;;;21.62;63.06;102178.13;5054726;28;20045;-59
2022/07/16 05:28:10;;;;;;;5.72;3.63;;;21.20;99.90;;;21.71;62.71;102185.03;5054337;28;20044;-59
2022/07/16 05:30:38;;;;;;;4.90;3.42;;;21.30;99.90;;;21.81;62.84;102184.75;5054116;28;20049;-60
2022/07/16 05:33:07;;;;;;;6.25;3.08;;;21.40;99.90;;;21.91;62.58;102193.47;5054408;28;20055;-60
2022/07/16 05:35:36;;;;;;;7.13;3.67;;;21.50;99.90;;;22.04;61.76;102198.44;5053994;28;20091;-59
2022/07/16 05:38:05;;;;;;;4.57;3.60;;;21.70;99.90;;;22.05;60.80;102197.47;5054102;28;20041;-60
2022/07/16 05:40:33;;;;;;;7.13;3.72;;;21.70;99.90;;;22.00;60.98;102209.34;5054162;28;20036;-59
2022/07/16 05:43:01;;;;;;;5.60;3.67;;;21.70;99.90;;;22.11;61.26;102209.88;5054133;28;20120;-59
2022/07/16 05:45:30;;;;;;;5.13;3.67;;;21.70;99.90;;;22.15;61.15;102207.06;5054076;28;20051;-60
2022/07/16 05:47:58;;;;;;;9.32;3.92;;;21.80;99.90;;;22.24;61.12;102216.69;5053807;28;20395;-59
2022/07/16 05:50:26;;;;;;;9.32;4.40;;;21.90;99.90;;;22.28;60.45;102216.53;5054022;28;20075;-59
2022/07/16 05:52:56;;;;;;;5.55;3.30;;;21.90;99.90;;;22.29;59.68;102214.72;5052638;28;20041;-59
2022/07/16 05:55:25;;;;;;;6.93;3.70;;;21.90;99.90;;;22.10;59.36;102221.63;5053921;28;20076;-59
2022/07/16 05:57:53;;;;;;;4.05;3.50;;;21.70;99.90;;;22.18;59.23;102216.88;5053719;28;20338;-59
2022/07/16 06:00:21;;;;;;;6.75;3.65;;;21.80;99.90;;;22.26;59.37;102218.38;5053796;28;20124;-59
2022/07/16 06:02:50;;;;;;;5.70;3.35;;;21.90;99.90;;;22.30;58.96;102222.75;5053781;28;20148;-59
2022/07/16 06:05:18;;;;;;;4.78;3.38;;;21.90;99.90;;;22.36;58.67;102221.69;5052745;28;20048;-60
2022/07/16 06:07:46;;;;;;;5.47;3.63;;;22.00;99.90;;;22.47;58.57;102229.44;5053485;28;20553;-59
2022/07/16 06:10:16;;;;;;;5.93;3.58;;;22.10;99.90;;;22.47;57.72;102227.63;5053697;28;20123;-60
2022/07/16 06:12:44;;;;;;;8.23;3.40;;;22.10;99.90;;;22.53;56.89;102235.50;5052345;28;20499;-60
2022/07/16 06:15:13;;;;;;;6.55;3.53;;;22.20;99.90;;;22.57;56.86;102233.66;5053156;28;20303;-59
2022/07/16 06:17:42;;;;;;;5.80;3.53;;;22.20;99.90;;;22.56;56.83;102226.44;5052890;28;20123;-60
2022/07/16 06:20:11;;;;;;;7.00;3.63;;;22.10;99.90;;;22.63;57.18;102239.72;5052118;28;20041;-60
2022/07/16 06:22:40;;;;;;;9.63;3.57;;;22.20;99.90;;;22.65;56.53;102242.38;5052210;28;20483;-60
2022/07/16 06:25:13;;;;;;;7.03;3.83;;;22.30;99.90;;;22.66;55.85;102246.84;5053749;28;20072;-62
2022/07/16 06:27:43;;;;;;;9.68;3.60;;;22.30;99.90;;;22.70;55.12;102251.19;5053086;28;20041;-62
2022/07/16 06:30:14;;;;;;;8.60;3.63;;;22.30;99.90;;;22.66;54.83;102257.63;5053127;28;20083;-61
2022/07/16 06:32:43;;;;;;;10.77;3.33;;;22.30;99.90;;;22.73;54.90;102260.06;5053138;28;20048;-59
2022/07/16 06:35:12;;;;;;;5.40;3.50;;;22.30;99.90;;;22.85;55.38;102266.88;5052876;28;20406;-58
2022/07/16 06:37:40;;;;;;;7.53;4.00;;;22.40;99.90;;;22.84;54.84;102252.50;5053210;28;20041;-59
2022/07/16 06:40:10;;;;;;;6.82;3.00;;;22.50;99.90;;;22.72;54.06;102269.13;5053221;28;20098;-58
2022/07/16 06:42:39;;;;;;;7.40;3.42;;;22.50;99.90;;;22.81;54.53;102266.09;5053027;28;20417;-59
2022/07/16 06:45:11;;;;;;;7.40;3.47;;;22.40;99.90;;;22.85;54.00;102278.56;5053192;28;20513;-58
2022/07/16 06:47:40;;;;;;;8.75;3.90;;;22.40;99.90;;;22.87;53.70;102278.50;5053514;28;20048;-58
2022/07/16 06:50:10;;;;;;;8.65;3.58;;;22.50;99.90;;;22.71;53.83;102261.03;5053077;28;20064;-59
2022/07/16 06:52:39;;;;;;;6.65;3.30;;;22.50;99.90;;;22.90;54.10;102283.84;5052919;28;20055;-58
2022/07/16 06:55:08;;;;;;;11.05;3.60;;;22.60;99.90;;;22.96;53.41;102289.00;5053108;28;20053;-59
2022/07/16 06:57:37;;;;;;;6.70;3.10;;;22.60;99.90;;;22.98;53.46;102277.22;5053122;28;20041;-59
2022/07/16 07:00:07;;;;;;;8.70;3.42;;;22.60;99.90;;;22.82;53.96;102250.81;5053046;28;20051;-59
2022/07/16 07:02:37;;;;;;;6.65;3.30;;;22.70;99.90;;;23.08;52.55;102294.00;5052835;28;20087;-59
2022/07/16 07:05:07;;;;;;;4.60;3.07;;;22.70;99.90;;;23.12;50.94;102301.06;5053410;28;20080;-58
2022/07/16 07:07:35;;;;;;;6.95;3.10;;;22.80;99.90;;;23.13;51.16;102301.00;5052797;28;20066;-58
2022/07/16 07:10:05;;;;;;;5.43;2.92;;;22.70;99.90;;;23.11;51.22;102300.19;5052956;28;20048;-59
2022/07/16 07:12:34;;;;;;;7.28;3.58;;;22.70;99.90;;;23.12;51.33;102296.56;5052642;28;20049;-59
2022/07/16 07:15:04;;;;;;;6.10;2.67;;;22.70;99.90;;;23.25;52.04;102303.31;5052617;28;20461;-58
2022/07/16 07:17:32;;;;;;;7.55;3.13;;;22.90;99.90;;;23.34;51.33;102302.16;5052676;28;20128;-62
2022/07/16 07:20:02;;;;;;;6.13;2.83;;;23.00;99.90;;;23.43;50.89;102301.81;5052801;28;20091;-63
2022/07/16 07:22:30;;;;;;;5.80;3.03;;;23.10;99.90;;;23.55;51.25;102312.22;5051613;28;20064;-62
2022/07/16 07:24:58;;;;;;;4.88;2.80;;;23.20;99.90;;;23.76;51.21;102316.84;5052638;28;20148;-62
2022/07/16 07:27:27;;;;;;;6.18;2.95;;;23.30;99.90;;;23.77;49.44;102318.59;5052526;28;20383;-62
2022/07/16 07:29:55;;;;;;;4.00;3.08;;;23.40;99.90;;;23.90;49.97;102319.06;5052684;28;20055;-63
2022/07/16 07:32:23;;;;;;;5.18;3.63;;;23.50;99.90;;;24.00;49.08;102315.94;5056426;28;20045;-63
2022/07/16 07:34:52;;;;;;;3.88;3.30;;;23.60;99.90;;;24.09;49.51;102318.38;5056330;28;20037;-63
2022/07/16 07:37:22;;;;;;;4.47;2.80;;;23.70;99.90;;;24.04;48.81;102312.22;5056488;28;20041;-63
2022/07/16 07:39:54;;;;;;;6.50;3.13;;;23.70;99.90;;;24.20;49.03;102325.19;5056544;28;20056;-64
2022/07/16 07:42:23;;;;;;;5.93;2.92;;;23.80;99.90;;;24.26;48.78;102327.66;5056496;28;20120;-62
2022/07/16 07:44:51;;;;;;;6.07;3.10;;;23.90;99.90;;;24.30;48.69;102326.59;5056120;28;20045;-64
2022/07/16 07:47:19;;;;;;;4.22;2.60;;;23.90;99.90;;;24.28;48.69;102337.47;5055923;28;20045;-64
2022/07/16 07:49:48;;;;;;;4.22;2.80;;;23.90;99.90;;;24.45;48.96;102331.44;5056080;28;20558;-63
2022/07/16 07:52:16;;;;;;;4.85;2.88;;;24.10;99.90;;;24.56;47.86;102337.31;5056296;28;20463;-64
2022/07/16 07:54:46;;;;;;;4.40;2.80;;;24.20;99.90;;;24.55;48.34;102324.72;5056136;28;20110;-61
2022/07/16 07:57:14;;;;;;;4.00;3.10;;;24.20;99.90;;;24.47;48.16;102343.06;5055866;28;20066;-62
2022/07/16 07:59:42;;;;;;;8.27;3.47;;;24.10;99.90;;;24.50;47.25;102334.84;5055781;28;20049;-62
2022/07/16 08:02:11;;;;;;;3.40;3.10;;;24.20;99.90;;;24.63;46.87;102347.84;5054729;28;20395;-62
2022/07/16 08:04:39;;;;;;;6.03;2.80;;;24.20;99.90;;;24.68;47.18;102358.50;5055639;28;20417;-62
2022/07/16 08:07:09;;;;;;;3.80;2.75;;;24.30;99.90;;;24.67;46.65;102359.41;5055544;28;20053;-62
2022/07/16 08:09:37;;;;;;;8.20;3.22;;;24.40;99.90;;;24.85;47.39;102365.00;5055623;28;20132;-62
2022/07/16 08:12:07;;;;;;;7.28;3.13;;;24.50;99.90;;;24.96;46.59;102359.19;5055388;28;20045;-63
2022/07/16 08:14:35;;;;;;;4.55;2.50;;;24.60;99.90;;;24.93;45.85;102365.59;5055794;28;20037;-63
2022/07/16 08:17:04;;;;;;;4.82;3.00;;;24.60;99.90;;;25.08;46.32;102368.63;5055415;28;20047;-62
2022/07/16 08:19:33;;;;;;;6.43;2.80;;;24.70;99.90;;;25.09;46.28;102365.00;5055208;28;20053;-61
2022/07/16 08:22:02;;;;;;;6.45;2.83;;;24.70;99.90;;;25.01;46.14;102368.88;5054567;28;20052;-63
2022/07/16 08:27:18;;;;;;;5.50;3.03;;;24.80;99.90;;;25.08;46.33;102358.69;5055357;28;20463;-63
2022/07/16 08:29:47;;;;;;;6.33;3.07;;;24.80;99.90;;;25.15;45.87;102375.56;5055357;28;20041;-63
2022/07/16 08:32:15;;;;;;;8.18;3.15;;;24.80;99.90;;;25.11;46.43;102379.34;5055009;28;20644;-64
2022/07/16 08:34:44;;;;;;;5.53;3.20;;;24.80;99.90;;;24.97;45.84;102383.50;5055134;28;20414;-65
2022/07/16 08:37:13;;;;;;;5.40;3.00;;;24.60;99.90;;;25.08;44.71;102379.47;5055056;28;20045;-63
2022/07/16 08:39:42;;;;;;;6.60;2.80;;;24.70;99.90;;;24.59;44.49;102385.91;5055027;28;20460;-63
2022/07/16 08:42:12;;;;;;;5.67;3.07;;;24.40;99.90;;;24.33;45.51;102377.91;5054691;28;20075;-64
2022/07/16 08:44:42;;;;;;;10.38;3.80;;;24.20;99.90;;;24.57;46.16;102388.66;5054971;28;20063;-63
2022/07/16 08:47:11;;;;;;;6.90;3.20;;;24.20;99.90;;;24.83;46.53;102398.53;5054961;28;20487;-63
2022/07/16 08:49:40;;;;;;;3.63;2.85;;;24.40;99.90;;;24.99;45.79;102397.84;5055499;28;20049;-64
2022/07/16 08:52:08;;;;;;;4.65;2.72;;;24.60;99.90;;;25.08;45.38;102396.63;5054807;28;20044;-63
2022/07/16 08:54:38;;;;;;;4.90;2.65;;;24.80;99.90;;;25.02;44.76;102388.72;5054437;28;20481;-64
2022/07/16 08:57:08;;;;;;;4.97;3.05;;;24.80;99.90;;;25.12;44.10;102403.69;5054705;28;20098;-63
2022/07/16 08:59:37;;;;;;;3.10;2.42;;;24.90;99.90;;;25.03;44.33;102385.06;5054870;28;20040;-63
2022/07/16 09:02:07;;;;;;;5.22;3.15;;;24.90;99.90;;;25.22;44.14;102410.50;5054709;28;20048;-63
2022/07/16 09:04:36;;;;;;;7.10;2.90;;;24.90;99.90;;;25.40;44.51;102417.88;5054946;28;20044;-65
2022/07/16 09:07:04;;;;;;;5.95;3.10;;;25.10;99.90;;;25.47;43.47;102418.53;5054637;28;20068;-60
2022/07/16 09:09:33;;;;;;;5.80;3.42;;;25.20;99.90;;;25.61;44.50;102424.25;5053453;28;20056;-59
2022/07/16 09:12:01;;;;;;;9.40;3.60;;;25.20;99.90;;;25.78;43.27;102414.44;5054486;28;20108;-65
2022/07/16 09:14:29;;;;;;;5.22;2.75;;;25.50;99.90;;;25.87;42.26;102430.34;5054769;28;20391;-63
2022/07/16 09:16:58;;;;;;;5.25;2.90;;;25.60;99.90;;;25.88;41.94;102423.06;5054272;28;20502;-63
2022/07/16 09:19:30;;;;;;;6.50;3.03;;;25.60;99.90;;;25.64;42.41;102433.13;5053328;28;20140;-63
2022/07/16 09:22:02;;;;;;;6.38;3.15;;;25.40;99.90;;;25.89;43.29;102441.09;5054676;28;20090;-63
2022/07/16 09:24:38;;;;;;;4.07;2.88;;;25.50;99.90;;;25.62;42.35;102436.84;5054853;28;20076;-63
2022/07/16 09:27:08;;;;;;;4.20;2.90;;;25.40;99.90;;;25.60;42.62;102436.94;5053996;28;20102;-62
2022/07/16 09:29:46;;;;;;;5.28;3.00;;;25.30;99.90;;;25.74;42.63;102436.34;5054428;28;20128;-62
2022/07/16 09:32:27;;;;;;;5.75;2.72;;;25.30;99.90;;;25.70;43.14;102418.44;5054040;28;20434;-63
2022/07/16 09:35:09;;;;;;;6.25;3.20;;;25.40;99.90;;;25.86;42.98;102443.97;5054228;28;20056;-63
2022/07/16 09:37:49;;;;;;;7.13;2.38;;;25.50;99.90;;;25.79;43.06;102440.63;5053910;28;20438;-59
2022/07/16 09:40:31;;;;;;;15.95;2.15;;;25.60;99.90;;;25.90;42.17;102448.28;5053981;28;20045;-59
2022/07/16 09:43:00;;;;;;;1.80;1.80;;;25.70;99.90;;;25.99;41.44;102458.75;5054223;28;20453;-58
2022/07/16 09:45:28;;;;;;;1.88;1.85;;;25.70;99.90;;;25.85;40.65;102453.91;5053787;28;20041;-59
2022/07/16 09:47:57;;;;;;;1.50;1.50;;;25.70;99.90;;;25.83;41.67;102457.63;5053787;28;20045;-60
2022/07/16 09:50:36;;;;;;;1.63;1.63;;;25.60;99.90;;;25.88;42.42;102467.34;5053741;28;20509;-58
2022/07/16 09:53:15;;;;;;;1.80;1.80;;;25.60;99.90;;;25.85;42.87;102459.34;5053050;28;20037;-63
2022/07/16 09:56:02;;;;;;;1.77;1.77;;;25.70;99.90;;;25.94;43.15;102466.19;5053684;28;20056;-58
2022/07/16 09:58:31;;;;;;;2.15;2.05;;;25.70;99.90;;;25.98;42.94;102461.53;5053796;28;20048;-58
2022/07/16 10:01:01;;;;;;;1.63;1.63;;;25.70;99.90;;;25.99;43.37;102461.47;5053515;28;20135;-60
2022/07/16 10:03:35;;;;;;;1.65;1.65;;;25.80;99.90;;;26.02;42.98;102469.47;5054051;28;20064;-60
2022/07/16 10:06:05;;;;;;;1.95;1.90;;;25.80;99.90;;;25.88;42.25;102477.28;5053363;28;20475;-60
2022/07/16 10:08:33;;;;;;;1.83;1.83;;;25.70;99.90;;;25.94;42.29;102463.47;5053379;28;20053;-61
2022/07/16 10:11:03;;;;;;;1.77;1.77;;;25.70;99.90;;;25.27;42.74;102468.06;5052430;28;20041;-60
2022/07/16 10:13:34;;;;;;;1.77;1.77;;;25.10;99.90;;;25.55;42.75;102463.31;5052427;28;20135;-61
2022/07/16 10:16:02;;;;;;;1.77;1.77;;;25.20;99.90;;;25.63;42.58;102469.31;5053304;28;20110;-61
2022/07/16 10:18:34;;;;;;;2.50;2.30;;;25.30;99.90;;;25.57;42.53;102460.56;5053311;28;20047;-60
2022/07/16 10:21:12;;;;;;;2.15;2.05;;;25.30;99.90;;;25.72;43.22;102468.06;5053194;28;20140;-60
2022/07/16 10:23:43;;;;;;;2.00;1.90;;;25.40;99.90;;;25.77;43.47;102469.63;5053467;28;20048;-60
2022/07/16 10:26:16;;;;;;;2.08;1.98;;;25.50;99.90;;;25.66;43.15;102463.78;5053185;28;20041;-59